createdAt,value
2019-04-07T00:00:29.407Z,36.13
2019-04-07T00:02:57.936Z,35.00
2019-04-07T00:05:26.625Z,40.03
2019-04-07T00:07:55.960Z,35.50
2019-04-07T00:10:24.942Z,38.80
2019-04-07T00:12:53.914Z,40.53
2019-04-07T00:15:23.014Z,39.33
2019-04-07T00:17:51.597Z,38.33
2019-04-07T00:20:23.649Z,33.60
2019-04-07T00:22:52.354Z,37.80
2019-04-07T00:25:20.960Z,37.37
2019-04-07T00:27:49.477Z,36.90
2019-04-07T00:30:18.206Z,35.53
2019-04-07T00:32:46.807Z,35.20
2019-04-07T00:35:23.219Z,38.60
2019-04-07T00:37:46.092Z,34.33
2019-04-07T00:40:15.328Z,36.27
2019-04-07T00:42:44.282Z,36.63
2019-04-07T00:45:13.178Z,36.97
2019-04-07T00:47:41.654Z,40.27
2019-04-07T00:50:10.415Z,37.13
2019-04-07T00:52:59.032Z,36.10
2019-04-07T00:55:27.573Z,32.77
2019-04-07T00:57:56.155Z,38.10
2019-04-07T01:00:26.986Z,38.23
2019-04-07T01:02:56.101Z,36.47
2019-04-07T01:05:35.307Z,42.97
2019-04-07T01:07:55.426Z,36.77
2019-04-07T01:10:24.228Z,36.93
2019-04-07T01:12:53.339Z,36.03
2019-04-07T01:15:23.053Z,35.67
2019-04-07T01:17:52.339Z,36.77
2019-04-07T01:20:21.817Z,37.97
2019-04-07T01:22:50.400Z,37.20
2019-04-07T01:25:19.308Z,35.33
2019-04-07T01:27:47.960Z,37.53
2019-04-07T01:30:17.216Z,35.70
2019-04-07T01:32:45.837Z,38.67
2019-04-07T01:35:14.526Z,36.60
2019-04-07T01:37:43.800Z,36.17
2019-04-07T01:40:13.486Z,35.33
2019-04-07T01:42:43.643Z,39.27
2019-04-07T01:45:32.009Z,37.03
2019-04-07T01:48:11.413Z,42.97
2019-04-07T01:50:58.360Z,36.47
2019-04-07T01:53:40.838Z,35.33
2019-04-07T01:56:11.074Z,40.23
2019-04-07T01:58:41.640Z,36.73
2019-04-07T02:01:30.621Z,40.43
2019-04-07T02:04:18.225Z,44.43
2019-04-07T02:06:51.693Z,39.87
2019-04-07T02:12:27.414Z,36.97
2019-04-07T02:15:03.669Z,42.13
2019-04-07T02:17:46.142Z,38.27
2019-04-07T02:20:58.953Z,40.97
2019-04-07T02:23:29.394Z,45.33
2019-04-07T02:26:02.579Z,42.63
2019-04-07T02:28:48.374Z,43.30
2019-04-07T02:31:36.748Z,46.00
2019-04-07T02:34:13.491Z,40.27
2019-04-07T02:36:50.032Z,41.47
2019-04-07T02:39:29.391Z,38.70
2019-04-07T02:42:08.769Z,41.43
2019-04-07T02:44:45.258Z,41.50
2019-04-07T02:47:33.548Z,39.83
2019-04-07T02:50:03.995Z,42.67
2019-04-07T02:52:37.230Z,40.50
2019-04-07T02:55:09.884Z,39.87
2019-04-07T02:57:40.409Z,39.77
2019-04-07T03:00:20.484Z,42.70
2019-04-07T03:03:08.893Z,39.97
2019-04-07T03:05:56.216Z,40.27
2019-04-07T03:08:27.088Z,38.77
2019-04-07T03:10:57.254Z,41.53
2019-04-07T03:13:43.500Z,39.03
2019-04-07T03:16:13.751Z,41.93
2019-04-07T03:18:46.838Z,37.97
2019-04-07T03:21:26.683Z,39.13
2019-04-07T03:24:06.204Z,40.77
2019-04-07T03:26:53.542Z,40.57
2019-04-07T03:29:33.277Z,36.97
2019-04-07T03:32:18.854Z,34.60
2019-04-07T03:35:06.176Z,38.57
2019-04-07T03:37:44.312Z,38.53
2019-04-07T03:40:26.834Z,39.30
2019-04-07T03:43:09.386Z,38.03
2019-04-07T03:45:42.164Z,39.47
2019-04-07T03:48:12.357Z,39.87
2019-04-07T03:50:46.205Z,39.80
2019-04-07T03:53:20.147Z,38.57
2019-04-07T03:55:59.880Z,37.53
2019-04-07T03:58:39.767Z,39.47
2019-04-07T04:01:15.620Z,35.40
2019-04-07T04:04:02.468Z,38.40
2019-04-07T04:09:41.314Z,35.33
2019-04-07T04:12:27.486Z,33.77
2019-04-07T04:15:12.893Z,30.83
2019-04-07T04:17:41.532Z,36.07
2019-04-07T04:20:10.668Z,32.77
2019-04-07T04:22:39.707Z,34.97
2019-04-07T04:25:08.846Z,34.77
2019-04-07T04:27:38.725Z,33.80
2019-04-07T04:30:11.988Z,34.97
2019-04-07T04:32:41.427Z,32.53
2019-04-07T04:35:10.761Z,34.23
2019-04-07T04:37:45.118Z,34.50
2019-04-07T04:40:10.253Z,33.97
2019-04-07T04:42:38.768Z,32.53
2019-04-07T04:45:08.769Z,29.87
2019-04-07T04:47:37.704Z,32.50
2019-04-07T04:50:08.207Z,32.80
2019-04-07T04:52:38.197Z,31.23
2019-04-07T04:55:07.357Z,34.10
2019-04-07T04:57:35.997Z,35.07
2019-04-07T05:00:07.431Z,31.93
2019-04-07T05:02:35.917Z,34.73
2019-04-07T05:05:09.120Z,32.27
2019-04-07T05:07:47.975Z,34.20
2019-04-07T05:10:08.184Z,34.63
2019-04-07T05:12:36.980Z,31.07
2019-04-07T05:15:07.565Z,31.50
2019-04-07T05:17:36.839Z,36.03
2019-04-07T05:20:07.132Z,33.00
2019-04-07T05:22:35.952Z,28.67
2019-04-07T05:25:07.008Z,30.73
2019-04-07T05:27:35.579Z,27.97
2019-04-07T05:30:08.381Z,28.27
2019-04-07T05:32:36.952Z,32.53
2019-04-07T05:35:07.834Z,31.93
2019-04-07T05:37:36.642Z,30.03
2019-04-07T05:40:05.975Z,29.83
2019-04-07T05:42:34.529Z,30.43
2019-04-07T05:45:04.078Z,28.60
2019-04-07T05:47:33.028Z,32.43
2019-04-07T05:50:03.303Z,29.10
2019-04-07T05:52:33.486Z,28.97
2019-04-07T05:55:02.703Z,29.47
2019-04-07T05:57:34.069Z,29.67
2019-04-07T06:00:01.523Z,28.60
2019-04-07T06:02:32.629Z,27.80
2019-04-07T06:05:00.575Z,27.00
2019-04-07T06:07:31.530Z,26.53
2019-04-07T06:10:00.094Z,29.27
2019-04-07T06:12:28.617Z,30.90
2019-04-07T06:14:57.285Z,28.73
2019-04-07T06:17:26.828Z,25.87
2019-04-07T06:19:56.807Z,27.87
2019-04-07T06:22:25.916Z,27.53
2019-04-07T06:24:54.824Z,25.93
2019-04-07T06:27:23.990Z,26.20
2019-04-07T06:29:57.146Z,25.20
2019-04-07T06:32:22.975Z,24.90
2019-04-07T06:34:51.432Z,23.37
2019-04-07T06:37:19.978Z,25.67
2019-04-07T06:39:50.692Z,23.70
2019-04-07T06:42:18.727Z,23.93
2019-04-07T06:44:50.293Z,26.30
2019-04-07T06:47:19.221Z,23.80
2019-04-07T06:49:58.734Z,30.70
2019-04-07T06:52:54.193Z,20.90
2019-04-07T06:55:41.657Z,25.17
2019-04-07T06:58:28.159Z,23.53
2019-04-07T07:01:16.623Z,23.63
2019-04-07T07:04:01.806Z,24.87
2019-04-07T07:06:46.067Z,25.70
2019-04-07T07:09:16.585Z,24.77
2019-04-07T07:11:56.122Z,25.40
2019-04-07T07:14:38.068Z,25.87
2019-04-07T07:17:18.536Z,26.23
2019-04-07T07:19:56.658Z,27.67
2019-04-07T07:22:28.607Z,27.07
2019-04-07T07:24:59.869Z,27.07
2019-04-07T07:27:27.403Z,27.70
2019-04-07T07:29:56.556Z,27.67
2019-04-07T07:32:25.898Z,25.33
2019-04-07T07:34:55.201Z,25.30
2019-04-07T07:37:25.364Z,25.60
2019-04-07T07:39:54.327Z,28.43
2019-04-07T07:42:24.173Z,26.57
2019-04-07T07:44:53.577Z,24.87
2019-04-07T07:47:22.901Z,27.90
2019-04-07T07:49:52.186Z,25.83
2019-04-07T07:52:21.848Z,22.10
2019-04-07T07:54:50.876Z,25.47
2019-04-07T07:57:23.479Z,22.73
2019-04-07T07:59:50.979Z,20.90
2019-04-07T08:02:19.978Z,26.60
2019-04-07T08:04:49.943Z,21.37
2019-04-07T08:07:19.338Z,26.70
2019-04-07T08:09:48.055Z,22.37
2019-04-07T08:12:17.326Z,20.40
2019-04-07T08:14:49.742Z,21.87
2019-04-07T08:17:16.191Z,22.23
2019-04-07T08:19:45.621Z,23.03
2019-04-07T08:22:26.587Z,21.10
2019-04-07T08:24:47.629Z,21.47
2019-04-07T08:27:16.185Z,22.50
2019-04-07T08:29:45.234Z,22.67
2019-04-07T08:32:13.806Z,20.50
2019-04-07T08:35:03.877Z,22.13
2019-04-07T08:37:31.844Z,20.70
2019-04-07T08:40:04.435Z,22.20
2019-04-07T08:42:32.645Z,21.27
2019-04-07T08:45:01.597Z,20.67
2019-04-07T08:47:30.254Z,24.63
2019-04-07T08:49:59.741Z,23.50
2019-04-07T08:52:28.553Z,22.53
2019-04-07T08:54:57.896Z,19.57
2019-04-07T08:57:29.410Z,19.90
2019-04-07T08:59:57.567Z,19.07
2019-04-07T09:02:29.139Z,18.47
2019-04-07T09:04:56.933Z,20.47
2019-04-07T09:07:25.502Z,19.80
2019-04-07T09:09:54.449Z,20.77
2019-04-07T09:12:27.448Z,21.03
2019-04-07T09:14:53.378Z,20.80
2019-04-07T09:17:40.025Z,18.87
2019-04-07T09:20:20.363Z,18.57
2019-04-07T09:22:59.403Z,22.23
2019-04-07T09:25:31.882Z,19.87
2019-04-07T09:28:02.052Z,19.07
2019-04-07T09:30:41.049Z,19.90
2019-04-07T09:33:26.448Z,20.43
2019-04-07T09:35:59.062Z,19.60
2019-04-07T09:38:35.433Z,21.40
2019-04-07T09:41:17.207Z,18.63
2019-04-07T09:43:52.896Z,18.87
2019-04-07T09:46:24.313Z,17.17
2019-04-07T09:49:11.710Z,15.70
2019-04-07T09:51:42.711Z,29.13
2019-04-07T09:54:13.319Z,24.43
2019-04-07T09:56:44.033Z,18.80
2019-04-07T09:59:20.325Z,18.67
2019-04-07T10:02:05.924Z,16.27
2019-04-07T10:04:42.448Z,21.73
2019-04-07T10:07:29.503Z,21.30
2019-04-07T10:10:10.084Z,24.10
2019-04-07T10:12:52.076Z,23.37
2019-04-07T10:15:22.506Z,22.30
2019-04-07T10:17:52.648Z,23.10
2019-04-07T10:20:39.636Z,22.47
2019-04-07T10:23:21.978Z,22.00
2019-04-07T10:26:08.448Z,24.17
2019-04-07T10:28:40.067Z,24.87
2019-04-07T10:31:29.460Z,19.77
2019-04-07T10:33:59.813Z,22.03
2019-04-07T10:36:30.778Z,21.20
2019-04-07T10:39:07.258Z,21.90
2019-04-07T10:41:49.654Z,25.60
2019-04-07T10:44:26.088Z,25.67
2019-04-07T10:47:14.357Z,20.47
2019-04-07T10:50:02.371Z,22.43
2019-04-07T10:52:41.789Z,20.37
2019-04-07T10:55:30.221Z,19.93
2019-04-07T10:58:16.537Z,20.60
2019-04-07T11:01:02.910Z,21.93
2019-04-07T11:03:34.079Z,20.97
2019-04-07T11:06:05.124Z,20.60
2019-04-07T11:08:35.628Z,21.47
2019-04-07T11:11:12.210Z,22.60
2019-04-07T11:13:55.449Z,20.48
2019-04-07T11:16:29.527Z,22.58
2019-04-07T11:19:08.944Z,20.45
2019-04-07T11:21:47.913Z,17.15
2019-04-07T11:24:20.919Z,20.37
2019-04-07T11:27:03.224Z,24.47
2019-04-07T11:29:48.587Z,22.15
2019-04-07T11:32:24.912Z,19.75
2019-04-07T11:35:13.747Z,19.95
2019-04-07T11:38:06.545Z,21.10
2019-04-07T11:40:53.555Z,20.65
2019-04-07T11:43:23.830Z,19.70
2019-04-07T11:46:02.902Z,20.80
2019-04-07T11:48:39.406Z,21.62
2019-04-07T11:51:11.925Z,20.60
2019-04-07T11:53:51.497Z,20.55
2019-04-07T11:56:23.916Z,22.82
2019-04-07T11:59:10.556Z,23.05
2019-04-07T12:01:43.705Z,20.10
2019-04-07T12:04:18.607Z,20.00
2019-04-07T12:06:54.812Z,23.67
2019-04-07T12:09:25.821Z,22.13
2019-04-07T12:12:15.376Z,22.87
2019-04-07T12:14:48.399Z,19.15
2019-04-07T12:17:20.938Z,22.45
2019-04-07T12:19:59.923Z,23.70
2019-04-07T12:22:45.439Z,22.65
2019-04-07T12:25:23.356Z,22.27
2019-04-07T12:28:00.028Z,25.08
2019-04-07T12:30:39.172Z,23.15
2019-04-07T12:33:09.880Z,28.35
2019-04-07T12:35:51.093Z,24.90
2019-04-07T12:38:27.445Z,26.27
2019-04-07T12:41:19.778Z,24.85
2019-04-07T12:43:49.290Z,24.43
2019-04-07T12:46:19.309Z,23.85
2019-04-07T12:49:09.373Z,23.40
2019-04-07T12:51:46.097Z,23.73
2019-04-07T12:54:16.805Z,20.50
2019-04-07T12:57:25.214Z,21.25
2019-04-07T13:00:05.929Z,20.20
2019-04-07T13:02:54.409Z,26.15
2019-04-07T13:05:28.556Z,19.62
2019-04-07T13:07:58.919Z,21.70
2019-04-07T13:10:30.266Z,23.52
2019-04-07T13:13:01.605Z,22.73
2019-04-07T13:15:49.808Z,23.87
2019-04-07T13:18:19.996Z,23.12
2019-04-07T13:20:51.258Z,23.80
2019-04-07T13:23:24.418Z,23.40
2019-04-07T13:25:57.882Z,27.73
2019-04-07T13:28:37.177Z,23.55
2019-04-07T13:31:11.226Z,28.98
2019-04-07T13:33:41.620Z,26.82
2019-04-07T13:36:21.417Z,31.65
2019-04-07T13:39:10.088Z,27.73
2019-04-07T13:41:46.123Z,24.07
2019-04-07T13:44:15.033Z,24.13
2019-04-07T13:46:47.995Z,27.75
2019-04-07T13:49:35.265Z,28.43
2019-04-07T13:52:05.656Z,31.20
2019-04-07T13:54:52.595Z,26.77
2019-04-07T13:57:29.496Z,28.23
2019-04-07T14:00:13.423Z,29.70
2019-04-07T14:02:50.137Z,26.00
2019-04-07T14:05:21.198Z,25.23
2019-04-07T14:08:08.106Z,24.83
2019-04-07T14:10:48.215Z,26.33
2019-04-07T14:13:30.213Z,26.13
2019-04-07T14:16:19.642Z,27.50
2019-04-07T14:19:02.496Z,25.77
2019-04-07T14:21:32.858Z,26.40
2019-04-07T14:24:07.817Z,26.03
2019-04-07T14:26:41.243Z,28.37
2019-04-07T14:29:18.451Z,25.60
2019-04-07T14:32:05.627Z,29.13
2019-04-07T14:34:41.774Z,28.00
2019-04-07T14:37:21.752Z,28.83
2019-04-07T14:39:52.311Z,28.40
2019-04-07T14:42:35.187Z,32.40
2019-04-07T14:45:12.521Z,26.53
2019-04-07T14:47:43.556Z,29.20
2019-04-07T14:50:17.000Z,29.87
2019-04-07T14:52:59.805Z,30.15
2019-04-07T14:55:33.418Z,28.35
2019-04-07T14:58:15.297Z,26.07
2019-04-07T15:01:04.776Z,26.42
2019-04-07T15:03:31.272Z,26.20
2019-04-07T15:05:59.750Z,24.40
2019-04-07T15:08:36.608Z,28.40
2019-04-07T15:11:16.687Z,24.82
2019-04-07T15:13:45.576Z,25.23
2019-04-07T15:16:14.055Z,22.90
2019-04-07T15:18:42.607Z,24.77
2019-04-07T15:21:11.227Z,24.43
2019-04-07T15:23:40.340Z,25.55
2019-04-07T15:26:11.981Z,27.45
2019-04-07T15:28:40.461Z,26.40
2019-04-07T15:31:09.703Z,26.13
2019-04-07T15:33:38.358Z,29.67
2019-04-07T15:36:09.117Z,29.20
2019-04-07T15:38:40.221Z,25.83
2019-04-07T15:41:11.964Z,25.33
2019-04-07T15:43:38.329Z,29.13
2019-04-07T15:46:07.457Z,29.70
2019-04-07T15:48:37.645Z,26.53
2019-04-07T15:51:06.765Z,25.17
2019-04-07T15:53:36.838Z,28.85
2019-04-07T15:56:07.036Z,32.28
2019-04-07T15:58:35.724Z,27.27
2019-04-07T16:01:06.741Z,28.85
2019-04-07T16:03:35.584Z,29.70
2019-04-07T16:06:04.669Z,29.05
2019-04-07T16:08:33.808Z,27.73
2019-04-07T16:11:02.388Z,28.57
2019-04-07T16:13:31.695Z,26.48
2019-04-07T16:16:00.338Z,27.55
2019-04-07T16:18:28.798Z,25.30
2019-04-07T16:20:57.474Z,27.17
2019-04-07T16:23:27.199Z,27.40
2019-04-07T16:25:58.395Z,25.60
2019-04-07T16:28:27.747Z,26.27
2019-04-07T16:30:56.418Z,26.77
2019-04-07T16:33:25.094Z,29.20
2019-04-07T16:35:55.353Z,29.27
2019-04-07T16:38:24.176Z,27.40
2019-04-07T16:40:53.754Z,27.67
2019-04-07T16:43:22.500Z,27.10
2019-04-07T16:45:51.050Z,28.37
2019-04-07T16:48:19.744Z,27.40
2019-04-07T16:50:51.012Z,29.20
2019-04-07T16:53:18.617Z,33.27
2019-04-07T16:55:50.595Z,30.20
2019-04-07T16:58:17.833Z,32.53
2019-04-07T17:00:47.370Z,38.43
2019-04-07T17:03:16.159Z,34.07
2019-04-07T17:05:45.104Z,30.63
2019-04-07T17:08:17.717Z,31.70
2019-04-07T17:10:44.106Z,32.97
2019-04-07T17:13:18.608Z,32.33
2019-04-07T17:15:43.178Z,33.23
2019-04-07T17:18:41.482Z,32.47
2019-04-07T17:21:18.492Z,26.17
2019-04-07T17:23:47.606Z,30.13
2019-04-07T17:26:16.522Z,32.33
2019-04-07T17:28:47.409Z,28.07
2019-04-07T17:31:15.638Z,29.80
2019-04-07T17:33:44.151Z,30.63
2019-04-07T17:36:16.642Z,32.20
2019-04-07T17:38:45.315Z,29.87
2019-04-07T17:41:15.617Z,32.33
2019-04-07T17:43:52.671Z,30.60
2019-04-07T17:46:57.879Z,29.33
2019-04-07T17:49:30.827Z,29.57
2019-04-07T17:52:00.696Z,29.80
2019-04-07T17:54:46.376Z,28.13
2019-04-07T17:57:16.648Z,27.63
2019-04-07T18:00:05.859Z,26.93
2019-04-07T18:02:53.869Z,28.17
2019-04-07T18:05:34.437Z,30.97
2019-04-07T18:08:10.813Z,26.07
2019-04-07T18:10:58.727Z,27.93
2019-04-07T18:13:43.429Z,26.83
2019-04-07T18:16:18.988Z,26.93
2019-04-07T18:18:58.354Z,27.17
2019-04-07T18:21:36.632Z,26.83
2019-04-07T18:24:10.496Z,28.57
2019-04-07T18:26:45.186Z,25.10
2019-04-07T18:29:34.578Z,24.70
2019-04-07T18:32:14.503Z,24.43
2019-04-07T18:35:01.190Z,23.40
2019-04-07T18:37:46.520Z,25.77
2019-04-07T18:40:26.288Z,23.40
2019-04-07T18:43:01.014Z,25.60
2019-04-07T18:45:46.563Z,26.97
2019-04-07T18:48:15.296Z,25.40
2019-04-07T18:50:54.891Z,23.43
2019-04-07T18:53:27.603Z,24.60
2019-04-07T18:56:03.443Z,23.57
2019-04-07T18:58:46.417Z,25.17
2019-04-07T19:01:24.408Z,23.73
2019-04-07T19:03:58.218Z,27.63
2019-04-07T19:06:47.412Z,30.97
2019-04-07T19:09:19.741Z,26.30
2019-04-07T19:12:02.823Z,23.43
2019-04-07T19:14:40.138Z,26.67
2019-04-07T19:17:02.879Z,23.13
2019-04-07T19:19:35.832Z,26.87
2019-04-07T19:22:21.350Z,25.53
2019-04-07T19:24:51.624Z,23.30
2019-04-07T19:27:30.774Z,26.00
2019-04-07T19:30:19.428Z,24.83
2019-04-07T19:33:06.128Z,25.57
2019-04-07T19:35:41.185Z,27.73
2019-04-07T19:38:22.054Z,27.33
2019-04-07T19:41:26.407Z,25.33
2019-04-07T19:43:58.385Z,27.03
2019-04-07T19:46:30.225Z,27.37
2019-04-07T19:49:00.583Z,26.77
2019-04-07T19:51:33.968Z,23.60
2019-04-07T19:54:15.373Z,23.40
2019-04-07T19:56:54.870Z,25.23
2019-04-07T19:59:30.855Z,30.57
2019-04-07T20:02:15.653Z,28.67
2019-04-07T20:04:47.780Z,24.40
2019-04-07T20:07:24.374Z,25.53
2019-04-07T20:10:04.388Z,23.77
2019-04-07T20:12:49.623Z,24.90
2019-04-07T20:15:22.846Z,25.90
2019-04-07T20:18:08.562Z,25.17
2019-04-07T20:20:44.994Z,25.00
2019-04-07T20:23:27.728Z,25.67
2019-04-07T20:28:45.126Z,27.50
2019-04-07T20:31:24.328Z,26.93
2019-04-07T20:34:03.418Z,23.87
2019-04-07T20:36:48.097Z,24.27
2019-04-07T20:39:36.709Z,25.83
2019-04-07T20:42:07.056Z,23.03
2019-04-07T20:44:38.168Z,26.70
2019-04-07T20:47:14.239Z,27.67
2019-04-07T20:49:53.297Z,28.20
2019-04-07T20:52:36.193Z,28.63
2019-04-07T20:55:23.524Z,29.57
2019-04-07T20:58:18.807Z,26.33
2019-04-07T21:00:59.848Z,27.70
2019-04-07T21:03:53.068Z,29.47
2019-04-07T21:06:35.832Z,30.10
2019-04-07T21:09:23.565Z,32.80
2019-04-07T21:12:12.899Z,31.37
2019-04-07T21:14:55.047Z,25.67
2019-04-07T21:17:34.634Z,28.50
2019-04-07T21:20:09.840Z,27.10
2019-04-07T21:22:49.735Z,30.07
2019-04-07T21:25:26.391Z,26.00
2019-04-07T21:28:00.141Z,32.67
2019-04-07T21:30:39.962Z,31.33
2019-04-07T21:33:13.220Z,26.73
2019-04-07T21:35:46.356Z,25.50
2019-04-07T21:38:26.183Z,32.83
2019-04-07T21:40:57.832Z,32.67
2019-04-07T21:43:29.283Z,31.67
2019-04-07T21:46:00.433Z,30.53
2019-04-07T21:48:43.254Z,33.20
2019-04-07T21:51:31.081Z,30.77
2019-04-07T21:54:02.768Z,29.50
2019-04-07T21:56:36.939Z,31.27
2019-04-07T21:59:26.622Z,33.00
2019-04-07T22:02:03.528Z,29.87
2019-04-07T22:04:34.022Z,30.33
2019-04-07T22:07:07.138Z,30.10
2019-04-07T22:09:40.736Z,29.83
2019-04-07T22:12:09.294Z,26.60
2019-04-07T22:14:40.622Z,30.27
2019-04-07T22:17:08.049Z,28.93
2019-04-07T22:19:56.413Z,29.80
2019-04-07T22:22:26.581Z,30.10
2019-04-07T22:24:55.933Z,31.00
2019-04-07T22:27:26.954Z,32.00
2019-04-07T22:29:54.716Z,32.10
2019-04-07T22:32:24.342Z,33.37
2019-04-07T22:34:52.950Z,37.23
2019-04-07T22:37:22.584Z,33.50
2019-04-07T22:39:52.683Z,28.93
2019-04-07T22:42:22.389Z,32.10
2019-04-07T22:44:53.745Z,29.37
2019-04-07T22:47:22.619Z,35.60
2019-04-07T22:49:52.662Z,36.53
2019-04-07T22:52:21.337Z,33.53
2019-04-07T22:54:49.893Z,35.83
2019-04-07T22:57:18.402Z,38.77
2019-04-07T22:59:47.187Z,36.67
2019-04-07T23:02:15.938Z,40.53
2019-04-07T23:04:44.786Z,33.60
2019-04-07T23:07:13.806Z,38.43
2019-04-07T23:09:42.465Z,36.33
2019-04-07T23:12:10.989Z,37.47
2019-04-07T23:14:40.167Z,37.90
2019-04-07T23:17:08.811Z,36.30
2019-04-07T23:19:37.871Z,36.87
2019-04-07T23:22:06.695Z,35.67
2019-04-07T23:24:35.148Z,33.37
2019-04-07T23:27:04.137Z,35.73
2019-04-07T23:29:32.984Z,31.50
2019-04-07T23:32:01.863Z,30.17
2019-04-07T23:34:31.088Z,30.87
2019-04-07T23:36:59.919Z,25.70
2019-04-07T23:39:29.246Z,26.90
2019-04-07T23:41:58.640Z,24.87
2019-04-07T23:44:27.713Z,24.73
2019-04-07T23:46:57.180Z,23.37
2019-04-07T23:49:26.137Z,22.93
2019-04-07T23:52:14.555Z,24.70
2019-04-07T23:54:43.156Z,29.57
2019-04-07T23:57:11.625Z,29.20
2019-04-07T23:59:40.195Z,30.40
